createdAt,value
2019-05-16T00:01:55.311Z,6.30
2019-05-16T00:04:23.237Z,6.13
2019-05-16T00:06:51.221Z,6.60
2019-05-16T00:09:19.191Z,6.57
2019-05-16T00:11:48.819Z,6.60
2019-05-16T00:14:18.803Z,6.40
2019-05-16T00:16:48.335Z,6.13
2019-05-16T00:19:18.113Z,6.00
2019-05-16T00:21:46.299Z,7.00
2019-05-16T00:24:14.284Z,6.90
2019-05-16T00:26:42.225Z,7.33
2019-05-16T00:29:10.239Z,6.30
2019-05-16T00:31:38.384Z,6.60
2019-05-16T00:34:06.328Z,6.50
2019-05-16T00:36:34.235Z,6.00
2019-05-16T00:39:02.278Z,7.00
2019-05-16T00:41:30.293Z,6.17
2019-05-16T00:43:58.222Z,6.20
2019-05-16T00:46:27.954Z,6.00
2019-05-16T00:48:56.008Z,6.60
2019-05-16T00:51:23.978Z,6.70
2019-05-16T00:53:51.964Z,6.43
2019-05-16T00:56:19.938Z,6.10
2019-05-16T00:58:48.441Z,6.00
2019-05-16T01:01:18.765Z,6.13
2019-05-16T01:03:48.311Z,6.40
2019-05-16T01:06:21.932Z,5.87
2019-05-16T01:08:45.861Z,6.43
2019-05-16T01:11:13.759Z,7.00
2019-05-16T01:13:41.720Z,6.73
2019-05-16T01:16:09.617Z,6.43
2019-05-16T01:18:37.993Z,6.60
2019-05-16T01:21:07.822Z,6.40
2019-05-16T01:23:36.057Z,6.40
2019-05-16T01:26:04.017Z,6.80
2019-05-16T01:28:31.934Z,6.13
2019-05-16T01:30:59.866Z,6.80
2019-05-16T01:33:28.229Z,5.83
2019-05-16T01:35:58.289Z,6.83
2019-05-16T01:38:28.336Z,6.10
2019-05-16T01:40:58.120Z,6.27
2019-05-16T01:43:25.358Z,6.17
2019-05-16T01:45:53.304Z,6.33
2019-05-16T01:48:21.326Z,6.33
2019-05-16T01:50:49.289Z,6.33
2019-05-16T01:53:17.828Z,6.50
2019-05-16T01:55:48.571Z,6.40
2019-05-16T01:58:15.825Z,5.90
2019-05-16T02:00:52.344Z,6.20
2019-05-16T02:03:13.545Z,6.10
2019-05-16T02:05:41.570Z,6.50
2019-05-16T02:08:09.550Z,6.30
2019-05-16T02:10:37.949Z,6.27
2019-05-16T02:13:08.319Z,6.23
2019-05-16T02:15:38.108Z,6.50
2019-05-16T02:18:08.004Z,6.13
2019-05-16T02:20:35.018Z,6.27
2019-05-16T02:23:03.000Z,6.57
2019-05-16T02:25:30.948Z,6.00
2019-05-16T02:27:59.035Z,6.13
2019-05-16T02:30:27.039Z,6.30
2019-05-16T02:32:55.057Z,6.43
2019-05-16T02:35:22.929Z,6.40
2019-05-16T02:37:54.722Z,6.23
2019-05-16T02:40:22.006Z,6.17
2019-05-16T02:42:51.503Z,6.57
2019-05-16T02:45:21.265Z,6.97
2019-05-16T02:47:51.330Z,6.43
2019-05-16T02:50:22.467Z,6.50
2019-05-16T02:52:51.743Z,6.60
2019-05-16T02:55:21.376Z,6.27
2019-05-16T02:57:50.967Z,6.47
2019-05-16T03:00:20.950Z,6.30
2019-05-16T03:02:50.468Z,6.90
2019-05-16T03:05:20.879Z,6.20
2019-05-16T03:07:51.823Z,6.67
2019-05-16T03:10:20.308Z,6.70
2019-05-16T03:12:50.874Z,6.67
2019-05-16T03:15:17.597Z,7.03
2019-05-16T03:17:46.456Z,5.93
2019-05-16T03:20:14.568Z,6.50
2019-05-16T03:22:42.965Z,6.70
2019-05-16T03:25:11.672Z,6.53
2019-05-16T03:27:41.354Z,6.97
2019-05-16T03:30:15.286Z,6.60
2019-05-16T03:32:45.142Z,6.40
2019-05-16T03:35:14.539Z,6.40
2019-05-16T03:37:54.362Z,6.77
2019-05-16T03:40:10.849Z,6.70
2019-05-16T03:42:41.356Z,7.13
2019-05-16T03:45:10.547Z,6.20
2019-05-16T03:47:37.356Z,6.60
2019-05-16T03:50:05.506Z,6.37
2019-05-16T03:52:33.435Z,6.67
2019-05-16T03:55:02.028Z,6.57
2019-05-16T03:57:30.656Z,6.43
2019-05-16T04:00:00.570Z,6.60
2019-05-16T04:02:30.957Z,6.93
2019-05-16T04:05:01.376Z,6.40
2019-05-16T04:07:30.983Z,5.90
2019-05-16T04:09:57.491Z,7.13
2019-05-16T04:12:25.455Z,6.60
2019-05-16T04:14:53.423Z,6.57
2019-05-16T04:17:21.383Z,6.67
2019-05-16T04:19:50.892Z,6.60
2019-05-16T04:22:21.462Z,7.00
2019-05-16T04:24:51.302Z,6.40
2019-05-16T04:27:21.196Z,6.63
2019-05-16T04:29:51.056Z,6.53
2019-05-16T04:32:20.565Z,6.47
2019-05-16T04:34:47.209Z,6.20
2019-05-16T04:37:15.187Z,6.00
2019-05-16T04:39:43.147Z,6.20
2019-05-16T04:42:11.435Z,6.57
2019-05-16T04:44:41.722Z,6.60
2019-05-16T04:47:10.964Z,6.53
2019-05-16T04:49:41.160Z,6.30
2019-05-16T04:52:10.993Z,6.50
2019-05-16T04:54:41.509Z,5.80
2019-05-16T04:57:07.588Z,6.70
2019-05-16T04:59:35.597Z,7.57
2019-05-16T05:02:03.591Z,6.80
2019-05-16T05:04:31.660Z,6.57
2019-05-16T05:07:00.470Z,6.47
2019-05-16T05:09:31.509Z,6.90
2019-05-16T05:12:03.593Z,6.70
2019-05-16T05:14:30.623Z,6.73
2019-05-16T05:16:57.777Z,6.90
2019-05-16T05:19:25.690Z,7.00
2019-05-16T05:21:53.671Z,7.10
2019-05-16T05:24:21.624Z,6.70
2019-05-16T05:26:50.359Z,7.37
2019-05-16T05:29:20.053Z,6.90
2019-05-16T05:31:54.220Z,6.87
2019-05-16T05:34:19.902Z,6.60
2019-05-16T05:36:47.627Z,6.80
2019-05-16T05:39:15.748Z,7.20
2019-05-16T05:41:43.680Z,6.77
2019-05-16T05:44:11.630Z,6.90
2019-05-16T05:46:40.186Z,7.33
2019-05-16T05:49:10.391Z,8.80
2019-05-16T05:51:37.804Z,9.03
2019-05-16T05:54:05.749Z,8.43
2019-05-16T05:56:33.651Z,7.50
2019-05-16T05:59:01.700Z,7.30
2019-05-16T06:01:31.595Z,7.60
2019-05-16T06:03:59.810Z,7.03
2019-05-16T06:06:30.242Z,6.53
2019-05-16T06:08:57.670Z,7.07
2019-05-16T06:11:25.653Z,7.07
2019-05-16T06:13:53.602Z,11.00
2019-05-16T06:16:21.595Z,10.50
2019-05-16T06:18:50.299Z,10.40
2019-05-16T06:21:20.292Z,9.80
2019-05-16T06:23:50.642Z,9.47
2019-05-16T06:26:20.183Z,9.73
2019-05-16T06:28:50.241Z,10.37
2019-05-16T06:31:17.298Z,11.20
2019-05-16T06:33:45.283Z,11.20
2019-05-16T06:36:13.320Z,11.50
2019-05-16T06:38:41.306Z,10.80
2019-05-16T06:41:10.610Z,9.87
2019-05-16T06:43:40.038Z,10.70
2019-05-16T06:46:08.059Z,10.40
2019-05-16T06:48:36.047Z,10.40
2019-05-16T06:51:03.999Z,9.77
2019-05-16T06:53:31.987Z,10.23
2019-05-16T06:56:00.249Z,10.40
2019-05-16T06:58:30.321Z,10.53
2019-05-16T07:01:00.454Z,9.93
2019-05-16T07:03:27.776Z,10.10
2019-05-16T07:05:55.840Z,9.53
2019-05-16T07:08:23.799Z,9.53
2019-05-16T07:10:51.885Z,9.20
2019-05-16T07:13:20.006Z,9.20
2019-05-16T07:15:50.020Z,8.37
2019-05-16T07:18:20.439Z,8.23
2019-05-16T07:20:47.400Z,8.40
2019-05-16T07:23:15.297Z,8.60
2019-05-16T07:25:43.247Z,8.33
2019-05-16T07:28:11.244Z,8.43
2019-05-16T07:30:40.789Z,8.47
2019-05-16T07:33:09.818Z,7.87
2019-05-16T07:35:40.038Z,8.07
2019-05-16T07:38:07.596Z,8.10
2019-05-16T07:40:35.585Z,8.30
2019-05-16T07:43:03.536Z,8.23
2019-05-16T07:45:31.516Z,8.70
2019-05-16T07:48:00.087Z,8.27
2019-05-16T07:50:30.046Z,9.17
2019-05-16T07:52:59.882Z,8.40
2019-05-16T07:55:27.475Z,8.30
2019-05-16T07:57:55.517Z,8.57
2019-05-16T08:00:45.879Z,8.17
2019-05-16T08:02:53.128Z,8.10
2019-05-16T08:05:21.444Z,7.93
2019-05-16T08:07:51.238Z,7.67
2019-05-16T08:10:35.935Z,7.30
2019-05-16T08:12:51.325Z,8.30
2019-05-16T08:15:21.265Z,7.93
2019-05-16T08:17:51.168Z,7.70
2019-05-16T08:20:21.090Z,7.53
2019-05-16T08:22:50.534Z,7.53
2019-05-16T08:25:20.117Z,7.50
2019-05-16T08:27:47.261Z,8.47
2019-05-16T08:30:15.262Z,7.27
2019-05-16T08:32:43.211Z,7.50
2019-05-16T08:35:11.374Z,6.93
2019-05-16T08:40:11.424Z,7.23
2019-05-16T08:42:41.568Z,7.30
2019-05-16T08:45:12.464Z,8.03
2019-05-16T08:47:44.569Z,6.97
2019-05-16T08:50:14.692Z,7.00
2019-05-16T08:52:43.519Z,7.10
2019-05-16T08:55:13.450Z,7.07
2019-05-16T08:57:41.717Z,7.30
2019-05-16T09:00:14.638Z,7.60
2019-05-16T09:02:42.196Z,7.30
2019-05-16T09:05:13.486Z,7.40
2019-05-16T09:07:39.432Z,7.47
2019-05-16T09:10:35.466Z,7.00
2019-05-16T09:12:37.273Z,6.97
2019-05-16T09:15:07.708Z,7.30
2019-05-16T09:17:37.437Z,6.90
2019-05-16T09:18:38.511Z,7.37
2019-05-16T09:20:07.432Z,7.27
2019-05-16T09:22:37.644Z,7.33
2019-05-16T09:25:07.601Z,7.07
2019-05-16T09:27:34.797Z,7.27
2019-05-16T09:30:02.833Z,7.40
2019-05-16T09:32:30.796Z,7.50
2019-05-16T09:34:59.108Z,7.10
2019-05-16T09:37:27.560Z,7.00
2019-05-16T09:39:57.328Z,7.33
2019-05-16T09:42:27.714Z,7.63
2019-05-16T09:44:57.638Z,7.60
2019-05-16T09:47:27.929Z,8.17
2019-05-16T09:49:57.780Z,8.10
2019-05-16T09:52:26.941Z,8.20
2019-05-16T09:54:54.420Z,7.97
2019-05-16T09:57:22.385Z,8.30
2019-05-16T09:59:50.372Z,8.10
2019-05-16T10:02:18.424Z,8.20
2019-05-16T10:04:47.340Z,8.27
2019-05-16T10:07:17.968Z,8.73
2019-05-16T10:09:50.050Z,8.37
2019-05-16T10:12:18.103Z,7.90
2019-05-16T10:14:46.874Z,8.37
2019-05-16T10:17:14.432Z,8.70
2019-05-16T10:19:42.436Z,8.40
2019-05-16T10:22:10.490Z,8.27
2019-05-16T10:24:38.757Z,8.53
2019-05-16T10:27:06.771Z,7.77
2019-05-16T10:29:37.573Z,7.73
2019-05-16T10:32:07.432Z,8.30
2019-05-16T10:34:34.493Z,7.93
2019-05-16T10:37:02.373Z,8.83
2019-05-16T10:39:30.357Z,7.60
2019-05-16T10:41:58.549Z,8.23
2019-05-16T10:44:28.252Z,8.30
2019-05-16T10:46:56.118Z,8.73
2019-05-16T10:49:34.286Z,8.87
2019-05-16T10:51:53.785Z,8.50
2019-05-16T10:54:21.848Z,8.27
2019-05-16T10:56:50.056Z,8.57
2019-05-16T11:01:47.732Z,8.70
2019-05-16T11:04:28.631Z,9.40
2019-05-16T11:06:46.582Z,9.03
2019-05-16T11:09:17.201Z,9.90
2019-05-16T11:11:44.311Z,9.63
2019-05-16T11:14:12.381Z,8.27
2019-05-16T11:16:40.412Z,9.23
2019-05-16T11:19:17.230Z,8.27
2019-05-16T11:21:38.133Z,9.00
2019-05-16T11:24:12.133Z,8.53
2019-05-16T11:26:36.736Z,9.87
2019-05-16T11:29:07.289Z,8.37
2019-05-16T11:31:37.138Z,8.60
2019-05-16T11:34:05.363Z,8.73
2019-05-16T11:36:33.420Z,9.43
2019-05-16T11:39:02.027Z,8.70
2019-05-16T11:41:30.161Z,8.70
2019-05-16T11:43:58.224Z,8.70
2019-05-16T11:46:28.216Z,9.00
2019-05-16T11:48:56.947Z,8.63
2019-05-16T11:51:27.193Z,8.43
2019-05-16T11:53:59.726Z,9.13
2019-05-16T11:56:25.455Z,8.70
2019-05-16T11:58:57.158Z,8.60
2019-05-16T12:01:27.746Z,8.40
2019-05-16T12:04:00.070Z,9.20
2019-05-16T12:06:31.978Z,8.73
2019-05-16T12:08:59.936Z,9.33
2019-05-16T12:11:27.921Z,9.03
2019-05-16T12:13:56.642Z,9.13
2019-05-16T12:16:27.341Z,8.47
2019-05-16T12:18:57.005Z,8.90
2019-05-16T12:21:24.392Z,8.20
2019-05-16T12:23:52.391Z,8.90
2019-05-16T12:26:20.433Z,8.63
2019-05-16T12:28:48.421Z,8.70
2019-05-16T12:31:17.443Z,9.07
2019-05-16T12:33:47.859Z,8.60
2019-05-16T12:36:17.504Z,8.73
2019-05-16T12:38:46.765Z,8.70
2019-05-16T12:41:14.887Z,8.10
2019-05-16T12:43:49.710Z,7.90
2019-05-16T12:46:12.607Z,9.43
2019-05-16T12:48:40.542Z,8.67
2019-05-16T12:51:09.153Z,9.10
2019-05-16T12:53:37.156Z,9.50
2019-05-16T12:56:05.275Z,9.90
2019-05-16T12:58:42.163Z,9.63
2019-05-16T13:01:02.957Z,9.90
2019-05-16T13:03:30.926Z,8.90
2019-05-16T13:05:58.878Z,9.50
2019-05-16T13:08:27.023Z,10.00
2019-05-16T13:10:57.690Z,8.90
2019-05-16T13:13:27.604Z,8.90
2019-05-16T13:15:54.660Z,8.80
2019-05-16T13:18:22.570Z,9.10
2019-05-16T13:20:50.612Z,9.47
2019-05-16T13:23:18.695Z,9.10
2019-05-16T13:25:48.149Z,9.27
2019-05-16T13:28:16.769Z,8.53
2019-05-16T13:30:46.930Z,9.63
2019-05-16T13:33:14.340Z,8.83
2019-05-16T13:35:42.328Z,11.33
2019-05-16T13:38:10.411Z,8.50
2019-05-16T13:40:38.436Z,9.00
2019-05-16T13:43:09.781Z,8.40
2019-05-16T13:45:37.756Z,8.30
2019-05-16T13:48:08.135Z,8.30
2019-05-16T13:50:37.272Z,9.80
2019-05-16T13:53:07.729Z,10.47
2019-05-16T13:55:34.720Z,10.50
2019-05-16T13:58:03.078Z,9.10
2019-05-16T14:00:31.151Z,8.80
2019-05-16T14:02:59.218Z,9.37
2019-05-16T14:05:27.150Z,9.00
2019-05-16T14:07:57.289Z,8.87
2019-05-16T14:10:29.349Z,9.47
2019-05-16T14:12:54.745Z,10.00
2019-05-16T14:15:22.719Z,10.27
2019-05-16T14:17:50.709Z,9.13
2019-05-16T14:20:18.804Z,9.27
2019-05-16T14:22:46.714Z,9.60
2019-05-16T14:25:14.699Z,10.13
2019-05-16T14:27:42.664Z,10.10
2019-05-16T14:30:11.274Z,9.83
2019-05-16T14:32:42.915Z,9.97
2019-05-16T14:35:09.282Z,10.73
2019-05-16T14:37:37.819Z,10.00
2019-05-16T14:40:06.322Z,9.50
2019-05-16T14:42:34.410Z,9.87
2019-05-16T14:45:11.174Z,9.30
2019-05-16T14:47:32.175Z,10.20
2019-05-16T14:50:00.107Z,9.80
2019-05-16T14:52:28.128Z,10.10
2019-05-16T14:54:57.531Z,10.43
2019-05-16T14:57:27.399Z,9.87
2019-05-16T14:59:56.521Z,9.80
2019-05-16T15:02:27.262Z,10.77
2019-05-16T15:04:56.837Z,9.00
2019-05-16T15:07:24.217Z,9.20
2019-05-16T15:09:52.260Z,9.63
2019-05-16T15:12:20.237Z,10.27
2019-05-16T15:14:48.226Z,9.60
2019-05-16T15:17:16.807Z,9.53
2019-05-16T15:19:46.617Z,9.90
2019-05-16T15:22:16.782Z,9.33
2019-05-16T15:24:44.491Z,9.00
2019-05-16T15:27:13.078Z,8.97
2019-05-16T15:29:41.069Z,9.10
2019-05-16T15:32:09.013Z,9.23
2019-05-16T15:34:38.006Z,9.40
2019-05-16T15:37:07.839Z,9.67
2019-05-16T15:39:37.460Z,9.63
2019-05-16T15:42:08.224Z,9.40
2019-05-16T15:44:36.865Z,9.10
2019-05-16T15:47:07.411Z,8.90
2019-05-16T15:49:37.544Z,8.60
2019-05-16T15:52:07.117Z,9.00
2019-05-16T15:54:34.252Z,10.10
2019-05-16T15:57:02.283Z,10.07
2019-05-16T15:59:30.321Z,9.13
2019-05-16T16:01:58.539Z,9.03
2019-05-16T16:04:27.099Z,9.00
2019-05-16T16:06:55.434Z,9.60
2019-05-16T16:09:23.522Z,10.00
2019-05-16T16:11:51.563Z,9.50
2019-05-16T16:14:19.554Z,9.67
2019-05-16T16:16:47.495Z,9.90
2019-05-16T16:19:17.514Z,9.50
2019-05-16T16:21:47.261Z,9.17
2019-05-16T16:24:18.575Z,9.30
2019-05-16T16:26:46.927Z,9.90
2019-05-16T16:29:16.881Z,9.80
2019-05-16T16:31:44.343Z,9.70
2019-05-16T16:34:12.304Z,9.03
2019-05-16T16:36:40.272Z,10.30
2019-05-16T16:39:08.357Z,9.70
2019-05-16T16:41:37.554Z,9.30
2019-05-16T16:44:07.725Z,9.60
2019-05-16T16:46:37.456Z,10.37
2019-05-16T16:49:07.473Z,9.67
2019-05-16T16:51:37.406Z,9.80
2019-05-16T16:54:07.618Z,10.57
2019-05-16T16:56:37.587Z,11.30
2019-05-16T16:59:06.473Z,10.20
2019-05-16T17:01:37.293Z,10.37
2019-05-16T17:04:06.590Z,10.43
2019-05-16T17:06:37.365Z,10.37
2019-05-16T17:09:07.486Z,9.97
2019-05-16T17:11:37.104Z,9.87
2019-05-16T17:14:06.875Z,10.20
2019-05-16T17:16:37.734Z,11.73
2019-05-16T17:19:07.471Z,11.47
2019-05-16T17:21:36.776Z,10.10
2019-05-16T17:24:06.443Z,10.27
2019-05-16T17:26:34.280Z,9.83
2019-05-16T17:29:03.350Z,9.67
2019-05-16T17:31:31.458Z,11.20
2019-05-16T17:33:59.553Z,12.60
2019-05-16T17:36:27.593Z,13.10
2019-05-16T17:38:57.115Z,11.80
2019-05-16T17:41:27.184Z,9.77
2019-05-16T17:43:56.321Z,9.43
2019-05-16T17:46:36.709Z,11.60
2019-05-16T17:48:54.193Z,11.20
2019-05-16T17:51:26.132Z,10.50
2019-05-16T17:53:53.701Z,9.77
2019-05-16T17:56:22.922Z,9.20
2019-05-16T17:58:50.927Z,9.53
2019-05-16T18:01:18.921Z,9.87
2019-05-16T18:03:46.811Z,9.67
2019-05-16T18:06:16.849Z,9.10
2019-05-16T18:08:46.698Z,9.27
2019-05-16T18:11:14.274Z,9.70
2019-05-16T18:13:42.249Z,9.70
2019-05-16T18:16:10.249Z,9.80
2019-05-16T18:18:38.209Z,10.00
2019-05-16T18:21:06.877Z,9.50
2019-05-16T18:23:36.939Z,9.50
2019-05-16T18:26:04.913Z,9.40
2019-05-16T18:28:32.960Z,9.57
2019-05-16T18:31:01.008Z,9.23
2019-05-16T18:33:28.977Z,9.07
2019-05-16T18:35:57.981Z,8.80
2019-05-16T18:38:26.511Z,9.03
2019-05-16T18:40:56.641Z,10.00
2019-05-16T18:43:24.477Z,9.97
2019-05-16T18:45:52.401Z,9.10
2019-05-16T18:48:20.433Z,9.33
2019-05-16T18:50:48.341Z,8.63
2019-05-16T18:53:17.810Z,8.70
2019-05-16T18:55:46.283Z,9.13
2019-05-16T18:58:14.397Z,9.80
2019-05-16T19:00:42.719Z,9.30
2019-05-16T19:03:10.679Z,9.17
2019-05-16T19:05:38.610Z,8.70
2019-05-16T19:08:07.340Z,8.67
2019-05-16T19:10:36.674Z,9.07
2019-05-16T19:13:07.701Z,9.27
2019-05-16T19:15:37.189Z,9.33
2019-05-16T19:18:06.559Z,9.20
2019-05-16T19:20:37.182Z,10.03
2019-05-16T19:23:06.969Z,9.30
2019-05-16T19:25:34.346Z,9.27
2019-05-16T19:28:02.980Z,8.57
2019-05-16T19:30:31.797Z,8.70
2019-05-16T19:32:59.707Z,9.73
2019-05-16T19:35:27.659Z,9.27
2019-05-16T19:37:56.975Z,8.63
2019-05-16T19:40:25.016Z,9.53
2019-05-16T19:42:52.943Z,9.30
2019-05-16T19:45:20.981Z,9.20
2019-05-16T19:47:48.943Z,9.80
2019-05-16T19:50:16.917Z,9.17
2019-05-16T19:52:47.034Z,9.30
2019-05-16T19:55:14.492Z,10.30
2019-05-16T19:57:42.485Z,9.40
2019-05-16T20:00:10.857Z,10.20
2019-05-16T20:02:38.854Z,9.70
2019-05-16T20:05:07.092Z,9.23
2019-05-16T20:07:37.255Z,9.23
2019-05-16T20:10:08.966Z,9.57
2019-05-16T20:12:36.868Z,9.67
2019-05-16T20:15:08.960Z,9.50
2019-05-16T20:17:36.463Z,10.30
2019-05-16T20:20:04.422Z,9.60
2019-05-16T20:22:32.407Z,9.30
2019-05-16T20:25:01.535Z,9.53
2019-05-16T20:27:29.645Z,8.60
2019-05-16T20:29:59.371Z,9.73
2019-05-16T20:32:28.012Z,10.30
2019-05-16T20:34:56.053Z,9.63
2019-05-16T20:37:26.464Z,9.50
2019-05-16T20:39:54.031Z,9.57
2019-05-16T20:42:21.975Z,9.20
2019-05-16T20:44:49.989Z,9.80
2019-05-16T20:47:18.017Z,9.40
2019-05-16T20:49:47.742Z,9.93
2019-05-16T20:52:17.476Z,10.50
2019-05-16T20:54:46.555Z,9.67
2019-05-16T20:57:17.266Z,9.70
2019-05-16T20:59:46.307Z,9.70
2019-05-16T21:02:16.333Z,11.03
2019-05-16T21:04:46.434Z,10.47
2019-05-16T21:07:14.148Z,12.43
2019-05-16T21:09:42.306Z,10.83
2019-05-16T21:12:10.330Z,12.10
2019-05-16T21:14:38.285Z,12.53
2019-05-16T21:17:06.721Z,11.70
2019-05-16T21:19:36.332Z,13.53
2019-05-16T21:22:07.148Z,12.63
2019-05-16T21:24:34.486Z,12.40
2019-05-16T21:27:02.437Z,13.30
2019-05-16T21:29:30.429Z,13.00
2019-05-16T21:31:58.357Z,13.87
2019-05-16T21:34:27.234Z,12.80
2019-05-16T21:36:58.340Z,13.53
2019-05-16T21:39:26.481Z,12.77
2019-05-16T21:41:56.426Z,12.57
2019-05-16T21:44:25.996Z,12.47
2019-05-16T21:46:53.762Z,12.03
2019-05-16T21:49:22.145Z,12.40
2019-05-16T21:51:50.189Z,12.70
2019-05-16T21:54:18.194Z,12.80
2019-05-16T21:56:46.793Z,13.00
2019-05-16T21:59:14.822Z,13.03
2019-05-16T22:01:42.861Z,12.73
2019-05-16T22:04:10.897Z,12.70
2019-05-16T22:06:38.836Z,13.03
2019-05-16T22:09:07.515Z,13.00
2019-05-16T22:11:37.063Z,13.20
2019-05-16T22:14:06.459Z,14.30
2019-05-16T22:16:36.919Z,14.00
2019-05-16T22:19:04.424Z,14.10
2019-05-16T22:21:32.374Z,13.53
2019-05-16T22:24:00.376Z,13.43
2019-05-16T22:26:28.345Z,13.60
2019-05-16T22:28:57.439Z,13.30
2019-05-16T22:31:26.933Z,13.93
2019-05-16T22:33:55.089Z,13.70
2019-05-16T22:36:23.083Z,13.23
2019-05-16T22:38:51.028Z,13.03
2019-05-16T22:41:19.006Z,13.53
2019-05-16T22:43:46.981Z,14.20
2019-05-16T22:46:17.493Z,14.10
2019-05-16T22:48:46.661Z,13.50
2019-05-16T22:51:16.371Z,13.70
2019-05-16T22:53:44.059Z,12.80
2019-05-16T22:56:12.046Z,13.87
2019-05-16T22:58:40.039Z,13.80
2019-05-16T23:01:08.182Z,13.77
2019-05-16T23:03:38.019Z,13.90
2019-05-16T23:06:07.702Z,14.50
2019-05-16T23:08:36.473Z,13.30
2019-05-16T23:11:07.090Z,14.17
2019-05-16T23:13:34.312Z,13.90
2019-05-16T23:16:02.255Z,13.90
2019-05-16T23:18:30.222Z,13.63
2019-05-16T23:20:58.189Z,13.60
2019-05-16T23:23:26.599Z,14.10
2019-05-16T23:25:56.780Z,13.70
2019-05-16T23:28:24.442Z,14.07
2019-05-16T23:30:52.405Z,14.20
2019-05-16T23:33:20.393Z,13.37
2019-05-16T23:35:48.358Z,13.43
2019-05-16T23:38:19.795Z,13.87
2019-05-16T23:40:46.811Z,13.83
2019-05-16T23:43:15.024Z,12.43
2019-05-16T23:45:42.995Z,13.73
2019-05-16T23:48:11.455Z,13.57
2019-05-16T23:50:39.547Z,13.60
2019-05-16T23:53:07.654Z,13.20
2019-05-16T23:55:37.294Z,13.23
2019-05-16T23:58:07.064Z,13.17
